createdAt,value
2017-10-19T00:01:48.822Z,13.56
2017-10-19T00:04:14.758Z,13.53
2017-10-19T00:06:40.743Z,13.58
2017-10-19T00:09:06.692Z,13.65
2017-10-19T00:11:32.666Z,13.66
2017-10-19T00:13:58.627Z,13.37
2017-10-19T00:16:24.563Z,13.45
2017-10-19T00:18:50.515Z,13.59
2017-10-19T00:21:16.495Z,13.31
2017-10-19T00:23:42.460Z,13.21
2017-10-19T00:26:08.404Z,13.14
2017-10-19T00:28:34.345Z,13.32
2017-10-19T00:31:00.287Z,13.27
2017-10-19T00:33:26.232Z,13.28
2017-10-19T00:35:52.180Z,13.28
2017-10-19T00:38:18.137Z,13.28
2017-10-19T00:40:44.083Z,13.31
2017-10-19T00:43:10.024Z,13.28
2017-10-19T00:45:35.975Z,13.39
2017-10-19T00:48:01.947Z,13.16
2017-10-19T00:50:27.904Z,13.17
2017-10-19T00:52:53.858Z,13.17
2017-10-19T00:55:19.839Z,13.07
2017-10-19T00:57:45.799Z,13.18
2017-10-19T01:00:11.752Z,13.20
2017-10-19T01:02:37.723Z,13.06
2017-10-19T01:05:03.669Z,12.95
2017-10-19T01:07:29.623Z,13.03
2017-10-19T01:09:55.570Z,13.06
2017-10-19T01:12:21.507Z,12.90
2017-10-19T01:14:47.452Z,12.80
2017-10-19T01:17:13.411Z,12.95
2017-10-19T01:19:39.347Z,13.07
2017-10-19T01:22:05.302Z,13.07
2017-10-19T01:24:31.263Z,13.02
2017-10-19T01:26:57.231Z,12.97
2017-10-19T01:29:23.172Z,12.81
2017-10-19T01:31:49.131Z,12.75
2017-10-19T01:34:15.076Z,12.99
2017-10-19T01:36:41.007Z,13.04
2017-10-19T01:39:06.968Z,12.98
2017-10-19T01:41:32.917Z,13.03
2017-10-19T01:43:58.879Z,13.07
2017-10-19T01:46:24.835Z,12.91
2017-10-19T01:48:50.777Z,12.95
2017-10-19T01:51:16.701Z,13.02
2017-10-19T01:53:42.634Z,12.91
2017-10-19T01:56:08.559Z,12.89
2017-10-19T01:58:34.499Z,12.72
2017-10-19T02:01:00.441Z,12.51
2017-10-19T02:03:26.372Z,12.74
2017-10-19T02:05:52.359Z,12.82
2017-10-19T02:08:18.298Z,12.73
2017-10-19T02:10:44.274Z,12.60
2017-10-19T02:13:10.195Z,12.64
2017-10-19T02:15:36.135Z,12.64
2017-10-19T02:18:02.079Z,12.53
2017-10-19T02:20:28.069Z,12.82
2017-10-19T02:22:54.025Z,12.67
2017-10-19T02:25:19.975Z,12.67
2017-10-19T02:27:45.953Z,12.57
2017-10-19T02:30:11.896Z,12.50
2017-10-19T02:32:37.845Z,12.46
2017-10-19T02:35:03.825Z,12.45
2017-10-19T02:37:29.773Z,12.67
2017-10-19T02:39:55.744Z,12.19
2017-10-19T02:42:21.714Z,12.01
2017-10-19T02:44:47.704Z,12.33
2017-10-19T02:47:13.639Z,12.19
2017-10-19T02:49:39.581Z,12.17
2017-10-19T02:52:05.555Z,12.37
2017-10-19T02:54:31.493Z,12.37
2017-10-19T02:56:57.504Z,12.13
2017-10-19T02:59:23.450Z,12.33
2017-10-19T03:01:49.404Z,12.16
2017-10-19T03:04:15.353Z,12.08
2017-10-19T03:06:41.293Z,12.09
2017-10-19T03:09:07.248Z,12.09
2017-10-19T03:11:33.245Z,12.17
2017-10-19T03:13:59.197Z,12.09
2017-10-19T03:16:25.153Z,12.00
2017-10-19T03:18:51.088Z,12.10
2017-10-19T03:21:17.031Z,12.11
2017-10-19T03:23:43.007Z,12.28
2017-10-19T03:26:08.941Z,12.11
2017-10-19T03:28:34.891Z,12.01
2017-10-19T03:31:00.821Z,12.04
2017-10-19T03:33:26.785Z,12.10
2017-10-19T03:35:52.743Z,11.96
2017-10-19T03:38:18.691Z,12.00
2017-10-19T03:40:44.647Z,12.15
2017-10-19T03:43:10.603Z,12.14
2017-10-19T03:45:36.583Z,12.16
2017-10-19T03:48:02.599Z,12.16
2017-10-19T03:50:28.602Z,12.10
2017-10-19T03:52:54.536Z,12.18
2017-10-19T03:55:20.562Z,12.16
2017-10-19T03:57:46.487Z,12.08
2017-10-19T04:00:12.434Z,12.17
2017-10-19T04:02:38.423Z,12.22
2017-10-19T04:05:09.169Z,12.11
2017-10-19T04:07:37.337Z,12.07
2017-10-19T04:10:03.325Z,12.17
2017-10-19T04:12:29.270Z,12.10
2017-10-19T04:14:56.265Z,12.08
2017-10-19T04:17:22.304Z,12.10
2017-10-19T04:19:48.330Z,11.91
2017-10-19T04:22:14.277Z,12.02
2017-10-19T04:24:40.228Z,11.92
2017-10-19T04:27:06.184Z,11.82
2017-10-19T04:29:32.147Z,11.89
2017-10-19T04:31:58.084Z,11.70
2017-10-19T04:34:25.087Z,11.72
2017-10-19T04:36:51.068Z,11.78
2017-10-19T04:39:17.033Z,11.86
2017-10-19T04:41:43.008Z,11.85
2017-10-19T04:44:08.954Z,11.64
2017-10-19T04:46:35.000Z,11.77
2017-10-19T04:49:00.932Z,11.94
2017-10-19T04:51:26.948Z,11.76
2017-10-19T04:53:52.904Z,11.71
2017-10-19T04:56:18.834Z,11.66
2017-10-19T04:58:44.827Z,11.68
2017-10-19T05:01:10.824Z,11.75
2017-10-19T05:03:36.781Z,11.71
2017-10-19T05:06:02.728Z,11.79
2017-10-19T05:08:28.684Z,11.73
2017-10-19T05:10:54.640Z,11.72
2017-10-19T05:13:20.633Z,11.76
2017-10-19T05:15:46.647Z,11.65
2017-10-19T05:18:12.608Z,11.81
2017-10-19T05:20:38.565Z,11.62
2017-10-19T05:23:04.525Z,11.37
2017-10-19T05:25:30.478Z,11.62
2017-10-19T05:27:56.442Z,11.63
2017-10-19T05:30:22.438Z,11.69
2017-10-19T05:32:48.380Z,11.62
2017-10-19T05:35:14.352Z,11.77
2017-10-19T05:37:40.317Z,11.64
2017-10-19T05:40:06.308Z,11.53
2017-10-19T05:42:32.317Z,11.68
2017-10-19T05:44:58.272Z,11.76
2017-10-19T05:47:24.271Z,11.69
2017-10-19T05:49:50.247Z,11.85
2017-10-19T05:52:16.211Z,11.93
2017-10-19T05:54:42.200Z,11.81
2017-10-19T05:57:08.157Z,11.86
2017-10-19T05:59:34.106Z,11.80
2017-10-19T06:02:00.060Z,11.80
2017-10-19T06:04:26.009Z,11.80
2017-10-19T06:06:51.989Z,11.93
2017-10-19T06:09:17.968Z,11.77
2017-10-19T06:11:43.915Z,11.84
2017-10-19T06:14:09.944Z,12.02
2017-10-19T06:16:35.890Z,12.12
2017-10-19T06:19:01.840Z,12.17
2017-10-19T06:21:27.796Z,12.16
2017-10-19T06:23:53.763Z,12.05
2017-10-19T06:26:19.816Z,12.32
2017-10-19T06:28:45.793Z,12.42
2017-10-19T06:31:11.766Z,12.53
2017-10-19T06:33:37.702Z,12.87
2017-10-19T06:36:03.659Z,12.88
2017-10-19T06:38:29.598Z,13.04
2017-10-19T06:40:55.541Z,12.99
2017-10-19T06:43:21.518Z,13.11
2017-10-19T06:45:47.483Z,13.33
2017-10-19T06:48:13.420Z,13.41
2017-10-19T06:50:39.359Z,13.61
2017-10-19T06:53:05.337Z,13.72
2017-10-19T06:55:31.368Z,13.73
2017-10-19T07:00:29.805Z,13.94
2017-10-19T07:02:55.735Z,13.90
2017-10-19T07:05:21.680Z,13.96
2017-10-19T07:07:47.640Z,14.29
2017-10-19T07:10:13.574Z,14.20
2017-10-19T07:12:39.508Z,14.29
2017-10-19T07:15:05.438Z,14.56
2017-10-19T07:17:31.419Z,14.63
2017-10-19T07:19:57.355Z,14.61
2017-10-19T07:22:23.301Z,14.62
2017-10-19T07:24:49.263Z,14.92
2017-10-19T07:27:15.190Z,14.72
2017-10-19T07:29:41.367Z,14.84
2017-10-19T07:32:07.323Z,14.99
2017-10-19T07:34:33.249Z,14.77
2017-10-19T07:36:59.219Z,14.87
2017-10-19T07:39:25.146Z,15.25
2017-10-19T07:41:51.143Z,15.51
2017-10-19T07:44:17.099Z,15.21
2017-10-19T07:46:43.029Z,15.29
2017-10-19T07:49:08.983Z,15.61
2017-10-19T07:51:34.901Z,15.49
2017-10-19T07:54:00.966Z,15.24
2017-10-19T07:56:26.917Z,15.43
2017-10-19T07:58:52.855Z,15.38
2017-10-19T08:01:18.799Z,15.62
2017-10-19T08:03:47.379Z,15.85
2017-10-19T08:06:13.329Z,15.70
2017-10-19T08:08:39.280Z,15.94
2017-10-19T08:11:05.220Z,15.97
2017-10-19T08:13:31.155Z,15.94
2017-10-19T08:15:57.103Z,15.88
2017-10-19T08:18:23.055Z,15.93
2017-10-19T08:20:49.066Z,16.04
2017-10-19T08:23:15.039Z,16.12
2017-10-19T08:25:41.015Z,16.06
2017-10-19T08:28:06.960Z,16.07
2017-10-19T08:30:32.981Z,16.19
2017-10-19T08:32:58.944Z,16.09
2017-10-19T08:35:24.903Z,16.22
2017-10-19T08:37:50.865Z,16.34
2017-10-19T08:40:16.795Z,16.27
2017-10-19T08:42:42.745Z,16.33
2017-10-19T08:45:08.691Z,16.46
2017-10-19T08:47:34.619Z,16.48
2017-10-19T08:50:00.571Z,16.62
2017-10-19T08:52:26.535Z,16.63
2017-10-19T08:54:52.541Z,16.53
2017-10-19T08:57:18.516Z,16.46
2017-10-19T08:59:44.454Z,16.65
2017-10-19T09:02:10.409Z,16.63
2017-10-19T09:04:36.339Z,16.66
2017-10-19T09:07:02.311Z,16.77
2017-10-19T09:09:28.251Z,16.87
2017-10-19T09:11:54.191Z,16.88
2017-10-19T09:14:20.128Z,16.89
2017-10-19T09:16:46.252Z,16.95
2017-10-19T09:19:12.209Z,16.95
2017-10-19T09:21:38.131Z,16.90
2017-10-19T09:24:04.115Z,17.03
2017-10-19T09:26:30.085Z,17.00
2017-10-19T09:28:56.014Z,17.03
2017-10-19T09:31:21.955Z,17.09
2017-10-19T09:33:47.946Z,17.16
2017-10-19T09:36:13.887Z,17.20
2017-10-19T09:38:39.821Z,17.06
2017-10-19T09:41:05.757Z,17.18
2017-10-19T09:43:31.683Z,17.23
2017-10-19T09:45:57.649Z,17.12
2017-10-19T09:48:23.596Z,17.14
2017-10-19T09:50:49.537Z,17.23
2017-10-19T09:53:15.475Z,17.23
2017-10-19T09:55:41.441Z,17.23
2017-10-19T09:58:07.373Z,17.17
2017-10-19T10:00:33.329Z,17.21
2017-10-19T10:02:59.265Z,17.29
2017-10-19T10:05:25.211Z,17.28
2017-10-19T10:07:51.147Z,17.32
2017-10-19T10:10:17.127Z,17.33
2017-10-19T10:12:43.093Z,17.27
2017-10-19T10:15:09.023Z,17.36
2017-10-19T10:17:34.967Z,17.40
2017-10-19T10:20:00.894Z,17.44
2017-10-19T10:22:26.855Z,17.48
2017-10-19T10:24:52.807Z,17.44
2017-10-19T10:27:18.744Z,17.43
2017-10-19T10:29:44.707Z,17.51
2017-10-19T10:32:10.627Z,17.49
2017-10-19T10:34:36.584Z,17.42
2017-10-19T10:37:02.547Z,17.53
2017-10-19T10:39:28.487Z,17.57
2017-10-19T10:41:54.411Z,17.48
2017-10-19T10:44:20.358Z,17.62
2017-10-19T10:46:46.349Z,17.58
2017-10-19T10:49:12.279Z,17.65
2017-10-19T10:51:38.207Z,17.61
2017-10-19T10:54:04.193Z,17.66
2017-10-19T10:56:30.183Z,17.56
2017-10-19T10:58:56.191Z,17.71
2017-10-19T11:01:22.157Z,17.72
2017-10-19T11:03:48.117Z,17.77
2017-10-19T11:06:14.088Z,17.76
2017-10-19T11:08:40.039Z,17.77
2017-10-19T11:11:05.987Z,17.83
2017-10-19T11:13:31.911Z,17.84
2017-10-19T11:15:57.881Z,17.85
2017-10-19T11:18:23.811Z,17.87
2017-10-19T11:20:49.748Z,17.89
2017-10-19T11:23:15.685Z,17.88
2017-10-19T11:25:41.677Z,17.89
2017-10-19T11:28:07.619Z,17.98
2017-10-19T11:30:33.559Z,18.03
2017-10-19T11:32:59.523Z,18.04
2017-10-19T11:35:25.463Z,18.04
2017-10-19T11:37:51.426Z,18.13
2017-10-19T11:40:17.377Z,18.10
2017-10-19T11:42:43.348Z,18.12
2017-10-19T11:45:09.309Z,18.13
2017-10-19T11:47:35.241Z,18.20
2017-10-19T11:50:01.185Z,18.21
2017-10-19T11:52:27.121Z,18.14
2017-10-19T11:54:53.046Z,18.11
2017-10-19T11:57:19.003Z,18.19
2017-10-19T11:59:44.951Z,18.27
2017-10-19T12:02:10.900Z,18.23
2017-10-19T12:04:36.851Z,18.29
2017-10-19T12:07:02.803Z,18.29
2017-10-19T12:09:28.869Z,18.33
2017-10-19T12:11:54.842Z,18.27
2017-10-19T12:14:20.813Z,18.26
2017-10-19T12:16:46.751Z,18.28
2017-10-19T12:19:12.703Z,18.31
2017-10-19T12:21:39.713Z,18.35
2017-10-19T12:24:05.649Z,18.29
2017-10-19T12:26:31.611Z,18.35
2017-10-19T12:28:57.578Z,18.35
2017-10-19T12:31:23.525Z,18.33
2017-10-19T12:33:49.464Z,18.33
2017-10-19T12:36:15.415Z,18.38
2017-10-19T12:38:41.363Z,18.39
2017-10-19T12:41:07.309Z,18.36
2017-10-19T12:43:33.241Z,18.37
2017-10-19T12:45:59.253Z,18.34
2017-10-19T12:48:25.182Z,18.38
2017-10-19T12:50:51.114Z,18.45
2017-10-19T12:53:17.071Z,18.47
2017-10-19T12:55:43.061Z,18.38
2017-10-19T12:58:08.997Z,18.41
2017-10-19T13:00:34.975Z,18.31
2017-10-19T13:03:00.937Z,18.39
2017-10-19T13:05:26.887Z,18.39
2017-10-19T13:07:52.837Z,18.38
2017-10-19T13:10:18.830Z,18.39
2017-10-19T13:12:44.797Z,18.38
2017-10-19T13:15:10.771Z,18.42
2017-10-19T13:17:36.699Z,18.44
2017-10-19T13:20:02.641Z,18.38
2017-10-19T13:22:28.587Z,18.35
2017-10-19T13:24:54.524Z,18.38
2017-10-19T13:27:20.519Z,18.35
2017-10-19T13:29:46.459Z,18.25
2017-10-19T13:32:12.399Z,18.24
2017-10-19T13:34:38.328Z,18.22
2017-10-19T13:37:04.279Z,18.22
2017-10-19T13:39:30.217Z,18.23
2017-10-19T13:41:56.141Z,18.24
2017-10-19T13:44:22.083Z,18.26
2017-10-19T13:46:48.040Z,18.19
2017-10-19T13:49:13.993Z,18.18
2017-10-19T13:51:39.985Z,18.12
2017-10-19T13:54:05.927Z,18.14
2017-10-19T13:56:31.898Z,18.13
2017-10-19T13:58:57.833Z,18.10
2017-10-19T14:01:23.795Z,18.11
2017-10-19T14:03:49.735Z,18.17
2017-10-19T14:06:15.669Z,18.07
2017-10-19T14:08:41.613Z,18.07
2017-10-19T14:11:07.532Z,18.00
2017-10-19T14:13:33.466Z,18.03
2017-10-19T14:15:59.438Z,18.00
2017-10-19T14:18:25.364Z,17.98
2017-10-19T14:20:51.303Z,17.95
2017-10-19T14:23:17.265Z,17.90
2017-10-19T14:25:43.228Z,17.95
2017-10-19T14:28:09.175Z,17.88
2017-10-19T14:30:35.134Z,17.92
2017-10-19T14:33:01.087Z,17.89
2017-10-19T14:35:27.023Z,17.90
2017-10-19T14:37:52.963Z,17.87
2017-10-19T14:40:18.921Z,17.86
2017-10-19T14:42:44.870Z,17.85
2017-10-19T14:45:10.949Z,17.76
2017-10-19T14:47:36.892Z,17.76
2017-10-19T14:50:02.840Z,17.82
2017-10-19T14:52:28.785Z,17.77
2017-10-19T14:54:54.729Z,17.75
2017-10-19T14:57:20.728Z,17.72
2017-10-19T14:59:46.666Z,17.72
2017-10-19T15:02:12.596Z,17.76
2017-10-19T15:04:38.600Z,17.66
2017-10-19T15:07:04.550Z,17.62
2017-10-19T15:09:30.513Z,17.62
2017-10-19T15:11:56.448Z,17.55
2017-10-19T15:14:22.383Z,17.55
2017-10-19T15:16:48.337Z,17.46
2017-10-19T15:19:14.265Z,17.37
2017-10-19T15:21:40.332Z,17.39
2017-10-19T15:24:06.388Z,17.43
2017-10-19T15:26:32.445Z,17.40
2017-10-19T15:28:58.409Z,17.31
2017-10-19T15:31:24.377Z,17.27
2017-10-19T15:33:50.360Z,17.30
2017-10-19T15:36:16.296Z,17.25
2017-10-19T15:38:42.255Z,17.21
2017-10-19T15:41:08.185Z,17.10
2017-10-19T15:43:34.129Z,17.06
2017-10-19T15:46:00.063Z,17.14
2017-10-19T15:48:26.005Z,17.08
2017-10-19T15:50:52.027Z,16.81
2017-10-19T15:53:17.969Z,16.78
2017-10-19T15:55:43.973Z,16.77
2017-10-19T15:58:09.925Z,16.74
2017-10-19T16:00:35.856Z,16.82
2017-10-19T16:03:01.843Z,16.65
2017-10-19T16:05:27.770Z,16.64
2017-10-19T16:07:53.705Z,16.80
2017-10-19T16:10:19.628Z,16.61
2017-10-19T16:12:45.586Z,16.70
2017-10-19T16:15:11.515Z,16.56
2017-10-19T16:17:37.496Z,16.56
2017-10-19T16:20:03.498Z,16.50
2017-10-19T16:22:29.465Z,16.44
2017-10-19T16:24:55.481Z,16.52
2017-10-19T16:27:21.433Z,16.60
2017-10-19T16:29:47.421Z,16.52
2017-10-19T16:32:13.372Z,16.47
2017-10-19T16:34:39.322Z,16.36
2017-10-19T16:37:05.261Z,16.33
2017-10-19T16:39:31.212Z,16.12
2017-10-19T16:42:01.552Z,15.97
2017-10-19T16:44:27.864Z,16.04
2017-10-19T16:46:54.559Z,15.78
2017-10-19T16:49:21.481Z,16.04
2017-10-19T16:51:47.520Z,15.96
2017-10-19T16:54:13.470Z,15.92
2017-10-19T16:56:39.422Z,15.82
2017-10-19T16:59:05.376Z,15.80
2017-10-19T17:01:31.355Z,15.98
2017-10-19T17:03:57.309Z,15.82
2017-10-19T17:06:23.291Z,15.95
2017-10-19T17:08:49.248Z,15.84
2017-10-19T17:11:15.371Z,15.71
2017-10-19T17:13:41.313Z,15.82
2017-10-19T17:16:07.264Z,15.60
2017-10-19T17:18:33.213Z,15.67
2017-10-19T17:20:59.160Z,15.81
2017-10-19T17:23:25.100Z,15.42
2017-10-19T17:25:51.160Z,15.26
2017-10-19T17:28:17.128Z,15.15
2017-10-19T17:30:43.399Z,15.20
2017-10-19T17:33:09.439Z,15.68
2017-10-19T17:35:35.417Z,15.14
2017-10-19T17:38:01.398Z,15.18
2017-10-19T17:40:27.399Z,15.37
2017-10-19T17:42:53.418Z,15.18
2017-10-19T17:45:19.377Z,15.36
2017-10-19T17:47:45.432Z,15.18
2017-10-19T17:50:11.384Z,15.09
2017-10-19T17:52:37.335Z,14.93
2017-10-19T17:55:03.290Z,15.09
2017-10-19T17:57:29.285Z,15.07
2017-10-19T17:59:55.226Z,14.85
2017-10-19T18:02:21.199Z,14.97
2017-10-19T18:04:47.152Z,14.92
2017-10-19T18:07:13.121Z,15.21
2017-10-19T18:09:39.063Z,15.10
2017-10-19T18:12:05.004Z,15.20
2017-10-19T18:14:30.940Z,14.87
2017-10-19T18:16:56.895Z,15.15
2017-10-19T18:19:22.830Z,14.76
2017-10-19T18:21:48.885Z,14.72
2017-10-19T18:24:14.816Z,14.55
2017-10-19T18:26:40.899Z,14.56
2017-10-19T18:29:06.879Z,15.21
2017-10-19T18:31:32.829Z,14.79
2017-10-19T18:33:59.316Z,14.95
2017-10-19T18:36:25.280Z,14.71
2017-10-19T18:38:51.220Z,14.35
2017-10-19T18:41:17.180Z,14.59
2017-10-19T18:43:43.129Z,14.40
2017-10-19T18:46:09.230Z,14.31
2017-10-19T18:48:35.162Z,14.46
2017-10-19T18:51:01.119Z,14.55
2017-10-19T18:53:27.073Z,14.02
2017-10-19T18:55:53.048Z,14.52
2017-10-19T18:58:19.045Z,14.96
2017-10-19T19:00:45.108Z,14.74
2017-10-19T19:03:11.056Z,14.54
2017-10-19T19:05:37.004Z,14.85
2017-10-19T19:08:02.977Z,14.22
2017-10-19T19:10:28.958Z,14.55
2017-10-19T19:12:54.999Z,14.34
2017-10-19T19:15:20.945Z,14.49
2017-10-19T19:17:46.890Z,14.45
2017-10-19T19:20:12.885Z,14.39
2017-10-19T19:22:38.849Z,14.23
2017-10-19T19:25:04.822Z,13.96
2017-10-19T19:27:30.844Z,14.08
2017-10-19T19:29:56.850Z,14.08
2017-10-19T19:32:22.806Z,13.92
2017-10-19T19:34:48.788Z,14.08
2017-10-19T19:37:14.758Z,14.32
2017-10-19T19:39:40.692Z,14.34
2017-10-19T19:42:06.664Z,14.18
2017-10-19T19:44:32.720Z,14.15
2017-10-19T19:46:58.673Z,13.93
2017-10-19T19:49:24.601Z,13.74
2017-10-19T19:51:50.528Z,13.97
2017-10-19T19:54:16.484Z,13.98
2017-10-19T19:56:42.472Z,14.01
2017-10-19T19:59:08.438Z,14.09
2017-10-19T20:01:34.381Z,14.33
2017-10-19T20:04:00.328Z,14.01
2017-10-19T20:06:26.278Z,14.05
2017-10-19T20:08:52.233Z,14.27
2017-10-19T20:11:18.162Z,13.78
2017-10-19T20:13:44.094Z,14.11
2017-10-19T20:16:10.036Z,13.82
2017-10-19T20:18:36.005Z,14.24
2017-10-19T20:21:01.934Z,13.99
2017-10-19T20:23:27.874Z,14.07
2017-10-19T20:25:53.828Z,14.07
2017-10-19T20:28:19.818Z,13.99
2017-10-19T20:30:45.764Z,13.84
2017-10-19T20:33:11.687Z,14.35
2017-10-19T20:35:37.624Z,13.99
2017-10-19T20:38:03.604Z,14.16
2017-10-19T20:40:29.592Z,14.35
2017-10-19T20:42:55.554Z,14.21
2017-10-19T20:45:21.488Z,14.43
2017-10-19T20:47:47.432Z,14.27
2017-10-19T20:50:13.436Z,14.08
2017-10-19T20:52:39.393Z,14.01
2017-10-19T20:55:05.330Z,14.22
2017-10-19T20:57:31.251Z,14.13
2017-10-19T20:59:57.246Z,14.22
2017-10-19T21:02:23.184Z,14.06
2017-10-19T21:04:49.146Z,14.23
2017-10-19T21:07:15.206Z,14.15
2017-10-19T21:09:41.172Z,14.09
2017-10-19T21:12:07.125Z,14.37
2017-10-19T21:14:33.079Z,14.35
2017-10-19T21:16:59.007Z,14.22
2017-10-19T21:19:24.928Z,14.15
2017-10-19T21:21:50.884Z,14.23
2017-10-19T21:24:16.855Z,14.37
2017-10-19T21:26:42.796Z,14.48
2017-10-19T21:29:08.732Z,14.35
2017-10-19T21:31:34.668Z,14.14
2017-10-19T21:34:00.607Z,14.23
2017-10-19T21:36:26.590Z,14.48
2017-10-19T21:38:52.521Z,14.05
2017-10-19T21:41:18.456Z,14.45
2017-10-19T21:43:44.392Z,14.48
2017-10-19T21:46:10.349Z,14.39
2017-10-19T21:48:36.297Z,14.59
2017-10-19T21:51:02.243Z,14.54
2017-10-19T21:53:28.179Z,14.31
2017-10-19T21:55:54.115Z,14.27
2017-10-19T21:58:20.044Z,14.31
2017-10-19T22:00:45.978Z,14.56
2017-10-19T22:03:11.907Z,14.23
2017-10-19T22:05:37.843Z,14.16
2017-10-19T22:08:03.783Z,14.58
2017-10-19T22:10:29.717Z,14.37
2017-10-19T22:12:55.653Z,14.44
2017-10-19T22:15:21.575Z,14.29
2017-10-19T22:17:47.499Z,14.38
2017-10-19T22:20:13.559Z,14.42
2017-10-19T22:22:39.491Z,14.56
2017-10-19T22:25:05.435Z,14.37
2017-10-19T22:27:31.357Z,14.62
2017-10-19T22:29:57.287Z,14.41
2017-10-19T22:32:23.328Z,14.43
2017-10-19T22:34:49.257Z,14.33
2017-10-19T22:37:15.230Z,14.38
2017-10-19T22:39:41.166Z,14.39
2017-10-19T22:42:07.099Z,14.36
2017-10-19T22:44:33.025Z,14.52
2017-10-19T22:46:58.985Z,14.51
2017-10-19T22:49:24.945Z,14.27
2017-10-19T22:51:50.894Z,14.45
2017-10-19T22:54:16.833Z,14.40
2017-10-19T22:56:42.757Z,14.53
2017-10-19T22:59:08.707Z,14.28
2017-10-19T23:01:34.646Z,14.19
2017-10-19T23:04:00.600Z,14.18
2017-10-19T23:06:26.520Z,14.16
2017-10-19T23:08:52.447Z,14.32
2017-10-19T23:11:18.379Z,14.32
2017-10-19T23:13:44.297Z,14.36
2017-10-19T23:16:10.257Z,14.08
2017-10-19T23:18:36.194Z,14.36
2017-10-19T23:21:02.129Z,14.45
2017-10-19T23:23:28.056Z,14.32
2017-10-19T23:25:53.989Z,14.41
2017-10-19T23:28:19.959Z,14.09
2017-10-19T23:30:45.905Z,14.10
2017-10-19T23:33:11.829Z,14.07
2017-10-19T23:35:37.787Z,14.39
2017-10-19T23:38:03.746Z,14.41
2017-10-19T23:40:29.678Z,14.18
2017-10-19T23:42:55.606Z,14.01
2017-10-19T23:45:21.547Z,14.07
2017-10-19T23:47:47.524Z,14.09
2017-10-19T23:50:13.451Z,13.87
2017-10-19T23:52:39.385Z,13.80
2017-10-19T23:55:05.323Z,13.85
2017-10-19T23:57:31.251Z,13.83
2017-10-19T23:59:57.198Z,13.89
